Time;durP1;ratioP1;P1;durP2;ratioP2;P2;SDS_P1;SDS_P2;PMS_P1;PMS_P2;Temp;Humidity;BMP_temperature;BMP_pressure;BME280_temperature;BME280_humidity;BME280_pressure;Samples;Min_cycle;Max_cycle;Signal;HPM_P1;HPM_P2
2023/05/22 00:02:07;;;;;;;17.45;11.77;;;;;;;18.79;74.69;101380.75;5016277;28;20278;-91
2023/05/22 00:04:32;;;;;;;21.67;12.52;;;;;;;18.76;74.61;101385.28;5016748;28;20458;-91
2023/05/22 00:06:58;;;;;;;17.27;12.43;;;;;;;18.78;74.61;101385.22;5034232;28;20108;-92
2023/05/22 00:09:24;;;;;;;20.73;12.85;;;;;;;18.77;74.20;101378.13;5034390;28;20037;-91
2023/05/22 00:11:52;;;;;;;21.73;13.55;;;;;;;18.67;74.84;101385.38;5016730;28;20038;-92
2023/05/22 00:14:18;;;;;;;19.13;12.70;;;;;;;18.61;74.96;101376.53;5033944;28;20375;-92
2023/05/22 00:16:47;;;;;;;19.65;12.93;;;;;;;18.74;74.78;101376.34;5034527;28;20056;-92
2023/05/22 00:19:15;;;;;;;17.65;12.55;;;;;;;18.70;74.79;101381.78;5017423;28;20128;-92
2023/05/22 00:21:41;;;;;;;17.20;12.18;;;;;;;18.68;74.80;101379.09;5016475;28;20167;-92
2023/05/22 00:24:08;;;;;;;22.65;13.32;;;;;;;18.62;75.32;101378.28;5016809;28;20029;-92
2023/05/22 00:26:33;;;;;;;22.33;13.05;;;;;;;18.58;74.88;101387.25;5033871;28;20034;-92
2023/05/22 00:28:59;;;;;;;20.85;12.85;;;;;;;18.51;75.29;101375.78;5033731;28;20022;-92
2023/05/22 00:31:24;;;;;;;21.92;14.10;;;;;;;18.48;75.44;101375.81;5000061;28;20037;-93
2023/05/22 00:33:50;;;;;;;26.55;13.60;;;;;;;18.39;76.06;101376.81;5016417;28;20041;-92
2023/05/22 00:36:15;;;;;;;19.75;13.50;;;;;;;18.31;76.49;101378.69;5033660;28;20072;-93
2023/05/22 00:38:40;;;;;;;21.42;13.52;;;;;;;18.20;76.79;101373.50;5033930;28;20025;-92
2023/05/22 00:41:06;;;;;;;23.00;13.70;;;;;;;18.17;77.08;101375.31;5033893;28;20056;-92
2023/05/22 00:43:32;;;;;;;22.35;12.68;;;;;;;18.22;77.24;101374.34;5016653;28;20033;-93
2023/05/22 00:45:58;;;;;;;19.10;13.02;;;;;;;18.10;77.39;101365.59;5033834;28;20065;-93
2023/05/22 00:48:24;;;;;;;20.45;13.05;;;;;;;18.09;77.74;101367.38;5033855;28;20041;-92
2023/05/22 00:50:50;;;;;;;21.60;12.50;;;;;;;18.04;78.17;101363.00;5033706;28;20112;-92
2023/05/22 00:53:19;;;;;;;18.20;12.45;;;;;;;17.96;78.34;101363.97;5033781;28;20033;-93
2023/05/22 00:55:45;;;;;;;19.42;12.15;;;;;;;17.97;78.15;101360.38;5015907;28;20128;-93
2023/05/22 00:58:16;;;;;;;20.27;12.45;;;;;;;18.04;77.99;101369.22;5033369;28;20421;-92
2023/05/22 01:00:42;;;;;;;22.35;13.77;;;;;;;18.02;78.03;101363.88;5033322;28;20033;-92
2023/05/22 01:03:12;;;;;;;21.08;13.35;;;;;;;17.92;78.72;101362.22;5033301;28;20060;-92
2023/05/22 01:05:48;;;;;;;21.13;13.18;;;;;;;17.96;78.44;101374.66;5033185;28;20061;-92
2023/05/22 01:08:15;;;;;;;16.45;12.73;;;;;;;17.93;78.37;101360.44;5015814;28;20063;-92
2023/05/22 01:10:45;;;;;;;23.88;13.60;;;;;;;17.92;78.36;101356.88;5034078;28;20029;-92
2023/05/22 01:13:28;;;;;;;19.95;13.32;;;;;;;18.05;78.08;101375.47;5034119;28;20033;-92
2023/05/22 01:16:09;;;;;;;21.92;13.13;;;;;;;17.99;78.50;101363.94;5006643;28;20054;-92
2023/05/22 01:18:59;;;;;;;21.52;13.15;;;;;;;17.96;78.02;101344.38;4994147;28;20065;-91
2023/05/22 01:21:44;;;;;;;22.67;12.95;;;;;;;18.08;78.14;101362.06;4994613;28;20042;-92
2023/05/22 01:24:18;;;;;;;20.88;12.50;;;;;;;18.18;77.29;101358.34;4994206;28;20037;-92
2023/05/22 01:27:00;;;;;;;20.08;12.93;;;;;;;18.11;76.91;101354.84;4993746;28;20061;-93
2023/05/22 01:29:45;;;;;;;21.52;13.40;;;;;;;18.06;77.34;101354.03;4992721;28;20038;-92
2023/05/22 01:32:18;;;;;;;22.70;13.40;;;;;;;17.97;78.18;101362.16;4994074;28;20030;-93
2023/05/22 01:34:48;;;;;;;23.75;13.40;;;;;;;17.95;77.76;101359.53;4994263;28;20034;-93
2023/05/22 01:37:16;;;;;;;22.90;14.10;;;;;;;17.88;77.90;101340.88;4995034;28;20057;-93
2023/05/22 01:39:43;;;;;;;24.85;13.88;;;;;;;18.01;77.92;101361.22;4993857;28;20100;-92
2023/05/22 01:42:21;;;;;;;21.38;13.85;;;;;;;17.88;78.06;101343.56;4993581;28;20042;-93
2023/05/22 01:44:52;;;;;;;23.80;14.18;;;;;;;17.90;78.45;101349.75;4993818;28;20477;-92
2023/05/22 01:47:21;;;;;;;20.50;13.45;;;;;;;17.75;78.80;101343.69;4993516;28;20030;-93
2023/05/22 01:49:47;;;;;;;20.50;14.27;;;;;;;17.83;78.47;101348.09;4993861;28;20027;-93
2023/05/22 01:52:20;;;;;;;21.70;14.50;;;;;;;17.76;78.43;101347.25;4993843;28;20382;-92
2023/05/22 01:54:59;;;;;;;21.05;14.15;;;;;;;17.79;78.18;101347.22;4993868;28;20049;-93
2023/05/22 01:57:40;;;;;;;22.38;14.77;;;;;;;17.73;78.51;101340.13;4993245;28;20038;-92
2023/05/22 02:00:11;;;;;;;20.98;14.52;;;;;;;17.84;78.33;101357.88;4994105;28;20042;-93
2023/05/22 02:02:43;;;;;;;21.00;15.18;;;;;;;17.69;78.55;101356.22;4993985;28;20070;-92
2023/05/22 02:05:11;;;;;;;25.17;15.60;;;;;;;17.67;78.90;101355.34;4994616;28;20121;-92
2023/05/22 02:07:38;;;;;;;21.58;14.70;;;;;;;17.67;78.69;101350.00;4997297;28;20034;-93
2023/05/22 02:10:06;;;;;;;21.42;15.43;;;;;;;17.72;78.21;101357.06;4996678;28;20154;-93
2023/05/22 02:12:32;;;;;;;23.08;16.05;;;;;;;17.58;78.62;101350.97;4997624;28;20061;-92
2023/05/22 02:14:58;;;;;;;25.23;15.73;;;;;;;17.52;78.91;101351.94;4980027;28;20057;-92
2023/05/22 02:17:24;;;;;;;27.08;17.02;;;;;;;17.54;78.93;101354.56;5034000;28;20050;-92
2023/05/22 02:19:50;;;;;;;24.55;16.20;;;;;;;17.49;79.09;101359.09;5036981;28;20033;-92
2023/05/22 02:22:16;;;;;;;24.08;17.08;;;;;;;17.38;79.01;101339.59;5037051;28;20041;-92
2023/05/22 02:24:47;;;;;;;25.63;17.08;;;;;;;17.44;79.30;101348.44;5036072;28;20467;-92
2023/05/22 02:27:13;;;;;;;24.10;15.63;;;;;;;17.42;78.82;101347.56;5036708;28;20021;-92
2023/05/22 02:29:40;;;;;;;29.85;17.75;;;;;;;17.38;78.99;101345.81;5036379;28;20037;-92
2023/05/22 02:32:06;;;;;;;25.02;16.85;;;;;;;17.36;79.27;101352.09;5019252;28;20061;-92
2023/05/22 02:34:31;;;;;;;25.77;16.50;;;;;;;17.32;79.46;101345.88;5036567;28;20072;-92
2023/05/22 02:37:02;;;;;;;27.05;17.33;;;;;;;17.31;79.79;101345.91;5036570;28;20124;-92
2023/05/22 02:39:28;;;;;;;23.77;16.73;;;;;;;17.19;79.61;101325.53;5036111;28;20025;-91
2023/05/22 02:41:54;;;;;;;24.90;17.40;;;;;;;17.17;80.10;101338.91;5036130;28;20037;-92
2023/05/22 02:44:20;;;;;;;27.38;17.25;;;;;;;17.19;80.63;101339.75;5018369;28;20458;-93
2023/05/22 02:46:46;;;;;;;26.30;17.40;;;;;;;17.22;80.07;101341.53;5036540;28;20453;-92
2023/05/22 02:49:11;;;;;;;27.33;16.83;;;;;;;17.23;80.01;101341.50;5018132;28;20036;-92
2023/05/22 02:51:37;;;;;;;25.73;17.50;;;;;;;17.21;80.11;101331.72;5035910;28;20033;-92
2023/05/22 02:54:02;;;;;;;27.23;17.42;;;;;;;17.29;79.83;101329.88;5001768;28;20029;-92
2023/05/22 02:56:28;;;;;;;22.10;16.48;;;;;;;17.27;79.64;101335.25;5001957;28;20427;-91
2023/05/22 02:58:54;;;;;;;26.27;17.42;;;;;;;17.22;79.76;101330.84;5035763;28;20036;-92
2023/05/22 03:01:20;;;;;;;24.63;16.05;;;;;;;17.28;79.59;101326.31;5035717;28;20099;-92
2023/05/22 03:03:49;;;;;;;27.63;17.90;;;;;;;17.22;79.64;101331.72;5035943;28;20039;-92
2023/05/22 03:06:14;;;;;;;25.65;17.58;;;;;;;17.11;79.91;101324.69;5035671;28;20108;-93
2023/05/22 03:08:42;;;;;;;26.15;16.95;;;;;;;17.15;80.01;101330.00;5035646;28;20040;-92
2023/05/22 03:11:10;;;;;;;31.50;16.50;;;;;;;17.19;79.67;101330.88;5035560;28;20155;-92
2023/05/22 03:13:35;;;;;;;25.10;17.13;;;;;;;17.14;79.55;101328.25;5035579;28;20044;-91
2023/05/22 03:16:01;;;;;;;25.60;16.85;;;;;;;17.07;80.10;101318.50;5034930;28;20077;-92
2023/05/22 03:18:27;;;;;;;26.17;16.13;;;;;;;17.03;80.24;101320.31;5035379;28;20108;-92
2023/05/22 03:20:52;;;;;;;23.77;16.42;;;;;;;17.05;79.78;101322.97;5035685;28;20033;-92
2023/05/22 03:23:19;;;;;;;26.58;17.55;;;;;;;17.07;79.93;101321.16;5001714;28;20034;-93
2023/05/22 03:25:48;;;;;;;24.73;16.77;;;;;;;17.08;79.66;101325.59;5035246;28;20037;-93
2023/05/22 03:28:13;;;;;;;23.92;17.13;;;;;;;16.98;79.90;101318.59;5018433;28;20100;-92
2023/05/22 03:30:39;;;;;;;28.58;17.65;;;;;;;16.96;79.94;101325.72;5035249;28;20473;-93
2023/05/22 03:33:04;;;;;;;26.48;18.05;;;;;;;16.95;79.93;101318.59;5017295;28;20116;-93
2023/05/22 03:35:30;;;;;;;23.98;17.35;;;;;;;16.77;80.30;101315.16;5035833;28;20041;-93
2023/05/22 03:37:55;;;;;;;24.70;16.77;;;;;;;16.78;80.24;101319.59;5035583;28;20052;-93
2023/05/22 03:40:21;;;;;;;24.52;17.85;;;;;;;16.75;80.46;101318.75;5035033;28;20030;-93
2023/05/22 03:42:49;;;;;;;25.65;17.20;;;;;;;16.77;80.10;101312.50;5034997;28;20506;-93
2023/05/22 03:45:14;;;;;;;26.65;17.48;;;;;;;16.75;80.35;101321.44;5034601;28;20026;-91
2023/05/22 03:47:40;;;;;;;27.40;17.63;;;;;;;16.67;80.44;101309.88;5034657;28;20034;-93
2023/05/22 03:50:06;;;;;;;26.30;18.02;;;;;;;16.71;80.41;101322.31;5035218;28;20381;-93
2023/05/22 03:52:31;;;;;;;30.33;17.52;;;;;;;16.63;80.67;101325.03;5034758;28;20048;-91
2023/05/22 03:54:57;;;;;;;24.67;17.80;;;;;;;16.64;80.40;101323.25;5017294;28;20390;-92
2023/05/22 03:57:22;;;;;;;27.52;17.95;;;;;;;16.43;81.07;101305.59;5016935;28;20033;-93
2023/05/22 03:59:47;;;;;;;25.58;17.20;;;;;;;16.47;81.26;101316.22;5016963;28;20030;-92
2023/05/22 04:02:15;;;;;;;26.35;16.25;;;;;;;16.53;80.78;101312.66;5016630;28;20117;-92
2023/05/22 04:04:44;;;;;;;26.63;17.50;;;;;;;16.52;80.85;101311.75;5034473;28;20029;-92
2023/05/22 04:07:11;;;;;;;31.38;18.33;;;;;;;16.48;80.72;101312.66;5034493;28;20036;-92
2023/05/22 04:09:37;;;;;;;29.10;18.27;;;;;;;16.48;80.54;101307.31;5034446;28;20037;-92
2023/05/22 04:12:06;;;;;;;29.50;17.92;;;;;;;16.53;80.44;101313.53;5034510;28;20036;-92
2023/05/22 04:14:33;;;;;;;34.50;19.67;;;;;;;16.40;80.98;101319.84;5017537;28;20167;-92
2023/05/22 04:16:59;;;;;;;34.25;19.63;;;;;;;16.30;81.58;101317.22;5016358;28;20379;-92
2023/05/22 04:19:26;;;;;;;33.08;20.00;;;;;;;16.35;81.54;101324.28;5034302;28;20497;-93
2023/05/22 04:21:53;;;;;;;32.08;19.98;;;;;;;16.30;81.55;101320.78;5034522;28;20034;-92
2023/05/22 04:24:19;;;;;;;31.45;19.70;;;;;;;16.33;82.10;101326.09;5034423;28;20032;-92
2023/05/22 04:26:45;;;;;;;31.63;19.15;;;;;;;16.25;82.43;101328.78;5034099;28;20219;-92
2023/05/22 04:29:13;;;;;;;34.15;19.83;;;;;;;16.24;82.33;101342.16;5015812;28;20120;-92
2023/05/22 04:31:38;;;;;;;30.90;20.23;;;;;;;16.18;82.60;101334.16;5016787;28;20040;-92
2023/05/22 04:34:10;;;;;;;32.50;19.50;;;;;;;16.11;82.92;101343.09;5033677;28;20029;-93
2023/05/22 04:36:37;;;;;;;31.50;19.13;;;;;;;16.13;83.30;101342.19;5017124;28;20376;-93
2023/05/22 04:39:03;;;;;;;33.78;20.23;;;;;;;16.13;83.35;101355.50;5000332;28;20037;-91
2023/05/22 04:41:29;;;;;;;34.80;19.98;;;;;;;16.01;83.89;101335.09;5033846;28;20484;-92
2023/05/22 04:43:57;;;;;;;37.70;20.65;;;;;;;15.98;83.92;101350.25;5016374;28;20060;-91
2023/05/22 04:46:25;;;;;;;33.25;19.80;;;;;;;16.05;83.70;101353.75;5016767;28;20045;-94
2023/05/22 04:48:50;;;;;;;35.60;20.05;;;;;;;16.01;83.89;101350.22;5000524;28;20061;-92
2023/05/22 04:51:15;;;;;;;40.05;20.63;;;;;;;16.03;84.13;101352.00;5016161;28;20076;-91
2023/05/22 04:53:41;;;;;;;37.28;21.00;;;;;;;16.05;84.17;101359.97;5016031;28;20028;-92
2023/05/22 04:56:06;;;;;;;36.22;20.90;;;;;;;16.03;83.92;101354.66;5016541;28;20037;-92
2023/05/22 04:58:32;;;;;;;38.75;21.40;;;;;;;16.10;83.75;101351.97;5034268;28;20037;-92
2023/05/22 05:00:58;;;;;;;38.47;22.10;;;;;;;16.16;83.99;101360.84;4999980;28;20041;-92
2023/05/22 05:03:27;;;;;;;34.00;21.13;;;;;;;16.12;83.77;101355.53;5033912;28;20033;-92
2023/05/22 05:05:52;;;;;;;41.65;21.75;;;;;;;16.12;84.00;101364.41;5035916;28;20038;-92
2023/05/22 05:08:20;;;;;;;34.92;20.98;;;;;;;16.18;83.77;101371.47;5000132;28;20079;-92
2023/05/22 05:10:45;;;;;;;34.47;19.60;;;;;;;16.26;83.14;101369.69;5033748;28;20042;-92
2023/05/22 05:13:11;;;;;;;35.55;20.42;;;;;;;16.26;83.49;101364.34;5034731;28;20029;-92
2023/05/22 05:15:36;;;;;;;36.40;21.15;;;;;;;16.21;84.11;101368.81;5033951;28;20146;-92
2023/05/22 05:18:02;;;;;;;38.40;19.98;;;;;;;16.25;83.62;101367.91;5000670;28;20386;-92
2023/05/22 05:20:29;;;;;;;36.60;20.45;;;;;;;16.21;83.63;101372.38;5015768;28;20033;-92
2023/05/22 05:22:55;;;;;;;39.60;21.40;;;;;;;16.19;83.94;101374.16;5015633;28;20476;-92
2023/05/22 05:25:20;;;;;;;36.00;20.33;;;;;;;16.22;84.26;101374.13;5033595;28;20117;-92
2023/05/22 05:27:46;;;;;;;40.25;21.33;;;;;;;16.15;84.79;101376.84;5033457;28;20037;-94
2023/05/22 05:30:11;;;;;;;42.42;21.38;;;;;;;16.20;84.52;101383.06;5033398;28;20065;-94
2023/05/22 05:32:41;;;;;;;41.22;21.90;;;;;;;16.17;84.94;101375.94;5032973;28;20038;-92
2023/05/22 05:35:07;;;;;;;45.58;22.08;;;;;;;16.21;84.85;101374.16;5033594;28;20033;-93
2023/05/22 05:37:32;;;;;;;41.22;21.90;;;;;;;16.13;85.22;101355.50;5033175;28;20091;-93
2023/05/22 05:39:58;;;;;;;41.63;22.20;;;;;;;16.28;85.69;101371.47;5018595;28;20026;-92
2023/05/22 05:42:23;;;;;;;41.50;21.73;;;;;;;16.41;84.94;101371.41;5037050;28;20393;-93
2023/05/22 05:44:48;;;;;;;47.60;22.40;;;;;;;16.47;84.80;101366.03;5037073;28;20358;-92
2023/05/22 05:47:14;;;;;;;43.80;23.15;;;;;;;16.39;85.13;101360.72;5019603;28;20083;-93
2023/05/22 05:49:39;;;;;;;49.53;23.17;;;;;;;16.42;85.08;101373.16;5036764;28;20034;-92
2023/05/22 05:52:05;;;;;;;41.22;23.17;;;;;;;16.48;85.00;101374.00;5037337;28;20034;-92
2023/05/22 05:54:30;;;;;;;47.53;23.25;;;;;;;16.50;85.55;101379.34;5019405;28;20090;-92
2023/05/22 05:56:56;;;;;;;44.42;24.27;;;;;;;16.49;84.98;101369.59;5037390;28;20060;-92
2023/05/22 05:59:21;;;;;;;53.03;24.63;;;;;;;16.54;85.53;101386.44;5019272;28;20034;-93
2023/05/22 06:01:47;;;;;;;42.67;23.75;;;;;;;16.57;84.95;101380.19;5002930;28;20033;-92
2023/05/22 06:04:13;;;;;;;52.00;22.90;;;;;;;16.65;84.47;101384.59;5019241;28;20030;-92
2023/05/22 06:06:41;;;;;;;48.00;23.17;;;;;;;16.68;84.78;101392.59;5036741;28;20076;-92
2023/05/22 06:09:08;;;;;;;47.25;23.48;;;;;;;16.78;85.04;101380.09;5037590;28;20040;-88
2023/05/22 06:11:34;;;;;;;46.47;23.63;;;;;;;16.81;84.75;101389.88;5043749;28;20033;-93
2023/05/22 06:14:03;;;;;;;45.55;24.10;;;;;;;16.77;84.49;101394.34;5049417;28;20028;-91
2023/05/22 06:16:29;;;;;;;40.13;23.88;;;;;;;16.79;84.53;101392.56;5035494;28;20057;-92
2023/05/22 06:18:56;;;;;;;42.60;23.45;;;;;;;16.86;84.32;101394.28;5052163;28;20097;-93
2023/05/22 06:21:21;;;;;;;42.60;23.95;;;;;;;16.88;84.33;101387.19;5039412;28;20083;-93
2023/05/22 06:23:48;;;;;;;40.78;24.13;;;;;;;16.87;84.13;101385.38;5020230;28;20029;-93
2023/05/22 06:26:14;;;;;;;42.45;24.17;;;;;;;16.93;83.83;101404.03;5019692;28;20033;-93
2023/05/22 06:28:39;;;;;;;43.28;24.15;;;;;;;16.82;84.19;101397.88;5036598;28;20393;-92
2023/05/22 06:31:08;;;;;;;40.70;23.35;;;;;;;16.88;84.12;101397.84;5018788;28;20134;-92
2023/05/22 06:33:35;;;;;;;40.05;23.35;;;;;;;16.92;84.63;101394.28;5036175;28;20025;-92
2023/05/22 06:36:02;;;;;;;44.13;24.35;;;;;;;17.00;84.01;101407.53;5036558;28;20042;-93
2023/05/22 06:38:28;;;;;;;43.05;24.33;;;;;;;17.01;83.86;101404.00;5036596;28;20046;-93
2023/05/22 06:40:55;;;;;;;37.22;21.75;;;;;;;17.08;83.51;101404.81;5036252;28;20029;-92
2023/05/22 06:43:21;;;;;;;40.55;24.63;;;;;;;17.13;83.68;101419.03;5018800;28;20063;-92
2023/05/22 06:45:51;;;;;;;41.50;24.13;;;;;;;17.15;83.51;101403.91;5018072;28;20041;-92
2023/05/22 06:48:19;;;;;;;44.13;25.02;;;;;;;17.31;83.86;101408.22;5036305;28;20120;-92
2023/05/22 06:50:44;;;;;;;44.20;25.02;;;;;;;17.34;83.78;101399.28;5035483;28;20029;-92
2023/05/22 06:53:13;;;;;;;44.17;24.67;;;;;;;17.54;82.86;101410.69;5035538;28;20110;-91
2023/05/22 06:55:43;;;;;;;46.00;25.42;;;;;;;17.57;82.00;101410.69;5035746;28;20060;-92
2023/05/22 06:58:11;;;;;;;40.22;25.15;;;;;;;17.62;81.83;101407.97;5035820;28;20032;-92
2023/05/22 07:00:41;;;;;;;45.25;24.67;;;;;;;17.66;81.96;101417.72;5036542;28;20026;-93
2023/05/22 07:03:16;;;;;;;39.92;23.90;;;;;;;17.70;81.38;101412.31;5019130;28;20426;-93
2023/05/22 07:05:44;;;;;;;44.55;25.33;;;;;;;17.75;81.33;101425.69;5035683;28;20064;-93
2023/05/22 07:08:10;;;;;;;41.92;23.98;;;;;;;17.75;81.35;101423.88;5018004;28;20034;-94
2023/05/22 07:10:40;;;;;;;44.95;25.48;;;;;;;17.74;81.25;101421.25;5018045;28;20047;-91
2023/05/22 07:13:08;;;;;;;45.42;25.08;;;;;;;17.78;80.90;101420.31;5035399;28;20496;-92
2023/05/22 07:15:38;;;;;;;45.17;25.52;;;;;;;17.76;81.78;101422.09;5035252;28;20045;-93
2023/05/22 07:18:06;;;;;;;48.47;26.13;;;;;;;17.86;81.24;101426.47;5018480;28;20044;-93
2023/05/22 07:20:32;;;;;;;45.50;24.92;;;;;;;17.89;80.57;101426.41;5035929;28;20033;-93
2023/05/22 07:22:57;;;;;;;45.60;26.27;;;;;;;17.98;80.90;101442.38;5035939;28;20095;-93
2023/05/22 07:25:23;;;;;;;48.30;27.40;;;;;;;17.98;79.60;101428.13;5035072;28;20079;-94
2023/05/22 07:27:51;;;;;;;44.50;26.05;;;;;;;17.97;79.76;101426.34;5035528;28;20029;-93
2023/05/22 07:30:24;;;;;;;56.13;26.92;;;;;;;18.06;79.61;101425.38;5035395;28;20092;-93
2023/05/22 07:32:49;;;;;;;44.75;25.73;;;;;;;18.11;79.14;101431.53;5035405;28;20034;-93
2023/05/22 07:35:15;;;;;;;40.30;26.17;;;;;;;18.16;79.11;101432.41;5035386;28;20042;-93
2023/05/22 07:37:40;;;;;;;43.67;25.05;;;;;;;18.29;78.93;101450.09;5017347;28;20030;-93
2023/05/22 07:40:10;;;;;;;44.42;25.90;;;;;;;18.31;78.48;101450.06;5017682;28;20397;-93
2023/05/22 07:42:37;;;;;;;42.70;25.60;;;;;;;18.41;78.34;101441.00;5035009;28;20040;-93
2023/05/22 07:45:06;;;;;;;43.40;26.50;;;;;;;18.52;78.09;101450.69;5034926;28;20061;-93
2023/05/22 07:47:32;;;;;;;51.05;27.00;;;;;;;18.58;77.81;101447.03;5017745;28;20040;-93
2023/05/22 07:50:05;;;;;;;45.83;27.00;;;;;;;18.62;77.53;101434.50;5016727;28;20022;-93
2023/05/22 07:52:33;;;;;;;47.17;28.02;;;;;;;18.59;77.60;101439.91;5034773;28;20490;-93
2023/05/22 07:55:01;;;;;;;43.28;27.45;;;;;;;18.68;77.07;101451.38;5016971;28;20026;-93
2023/05/22 07:57:47;;;;;;;;;;;;;;;;;;;;;
2023/05/22 08:00:13;;;;;;;44.92;26.80;;;;;;;18.71;77.25;101450.47;5019414;28;20040;-93
2023/05/22 08:02:47;;;;;;;44.85;27.45;;;;;;;18.68;76.90;101456.75;5034226;28;20083;-93
2023/05/22 08:05:12;;;;;;;43.65;27.58;;;;;;;18.68;77.54;101454.06;5034784;28;20116;-93
2023/05/22 08:07:41;;;;;;;47.58;28.58;;;;;;;18.69;77.21;101446.91;5001341;28;20495;-93
2023/05/22 08:10:33;;;;;;;49.42;28.73;;;;;;;18.69;77.86;101449.59;5016861;28;20037;-92
2023/05/22 08:13:04;;;;;;;45.90;27.42;;;;;;;18.81;77.24;101449.47;5017185;28;20029;-93
2023/05/22 08:15:33;;;;;;;48.58;29.80;;;;;;;18.91;77.40;101447.53;5034188;28;20021;-92
2023/05/22 08:17:59;;;;;;;49.85;30.83;;;;;;;19.06;76.58;101449.09;5017579;28;20041;-93
2023/05/22 08:20:34;;;;;;;;;;;;;;;;;;;;;
2023/05/22 08:23:05;;;;;;;48.95;29.90;;;;;;;19.23;76.20;101436.34;5035115;28;20479;-93
2023/05/22 08:25:31;;;;;;;51.05;30.25;;;;;;;19.39;76.37;101453.94;5034291;28;20116;-93
2023/05/22 08:28:04;;;;;;;45.38;29.50;;;;;;;19.37;75.44;101433.44;5034070;28;20068;-93
2023/05/22 08:30:29;;;;;;;45.25;29.83;;;;;;;19.44;74.75;101430.66;5034265;28;20072;-93
2023/05/22 08:32:58;;;;;;;51.28;31.40;;;;;;;19.44;75.42;101435.09;5033806;28;20072;-93
2023/05/22 08:35:24;;;;;;;50.92;30.67;;;;;;;19.63;75.64;101459.84;5034339;28;20029;-93
2023/05/22 08:37:49;;;;;;;46.45;29.73;;;;;;;19.69;75.31;101449.00;5000659;28;20044;-92
2023/05/22 08:40:19;;;;;;;49.08;32.08;;;;;;;19.72;75.76;101432.88;5016445;28;20033;-93
2023/05/22 08:42:47;;;;;;;51.28;30.58;;;;;;;19.96;75.22;101440.50;5016376;28;20034;-92
2023/05/22 08:45:16;;;;;;;41.90;28.88;;;;;;;20.09;74.26;101430.41;5016110;28;20038;-93
2023/05/22 08:47:51;;;;;;;48.15;31.08;;;;;;;20.17;73.40;101435.59;5033993;28;20071;-93
2023/05/22 08:50:19;;;;;;;50.17;29.92;;;;;;;20.39;73.20;101441.47;5016415;28;20431;-93
2023/05/22 08:52:50;;;;;;;51.63;31.58;;;;;;;20.50;72.65;101432.28;5033691;28;20072;-92
2023/05/22 08:55:18;;;;;;;47.63;32.03;;;;;;;20.68;71.83;101448.91;5015841;28;20029;-93
2023/05/22 08:57:49;;;;;;;47.47;30.15;;;;;;;20.81;71.05;101453.09;5033741;28;20061;-92
2023/05/22 09:00:15;;;;;;;49.33;30.95;;;;;;;20.84;71.51;101436.03;5033424;28;20026;-92
2023/05/22 09:02:46;;;;;;;45.13;29.50;;;;;;;21.15;70.46;101444.28;5033919;28;20033;-92
2023/05/22 09:05:14;;;;;;;49.03;29.40;;;;;;;21.46;69.12;101436.41;5016779;28;20339;-92
2023/05/22 09:07:44;;;;;;;48.53;30.48;;;;;;;21.66;69.15;101435.88;5034349;28;20045;-91
2023/05/22 09:10:18;;;;;;;48.70;29.88;;;;;;;21.97;67.83;101436.88;4999726;28;20037;-85
2023/05/22 09:13:08;;;;;;;43.25;28.85;;;;;;;22.41;67.55;101440.16;5016517;28;20045;-83
2023/05/22 09:15:37;;;;;;;46.13;29.42;;;;;;;22.61;65.05;101446.75;5015142;28;20202;-85
2023/05/22 09:18:04;;;;;;;49.00;29.42;;;;;;;22.95;64.14;101442.16;5033817;28;20075;-86
2023/05/22 09:20:39;;;;;;;44.60;29.27;;;;;;;23.06;63.71;101436.41;5033359;28;20117;-85
2023/05/22 09:23:14;;;;;;;45.33;28.80;;;;;;;23.17;63.02;101447.75;5016458;28;20454;-86
2023/05/22 09:25:43;;;;;;;44.53;29.08;;;;;;;22.98;63.44;101441.16;5033393;28;20025;-85
2023/05/22 09:28:12;;;;;;;42.17;29.15;;;;;;;22.79;63.93;101432.75;5015574;28;20025;-85
2023/05/22 09:30:41;;;;;;;49.65;28.67;;;;;;;22.92;63.97;101427.91;5033624;28;20037;-86
2023/05/22 09:33:07;;;;;;;50.38;31.42;;;;;;;22.81;63.77;101432.69;5015514;28;20386;-85
2023/05/22 09:35:38;;;;;;;47.92;30.40;;;;;;;23.18;64.03;101427.06;5016312;28;20026;-85
2023/05/22 09:38:14;;;;;;;60.10;37.63;;;;;;;23.58;61.93;101432.00;5015682;28;20029;-85
2023/05/22 09:40:42;;;;;;;61.55;37.63;;;;;;;23.62;60.65;101427.38;5018396;28;20029;-85
2023/05/22 09:43:15;;;;;;;58.40;37.45;;;;;;;23.56;60.77;101423.09;5033061;28;20084;-85
2023/05/22 09:45:41;;;;;;;66.18;37.92;;;;;;;23.48;61.20;101425.16;5033870;28;20033;-84
2023/05/22 09:48:18;;;;;;;;;;;;;;;;;;;;;
2023/05/22 09:50:47;;;;;;;58.45;37.83;;;;;;;23.65;60.80;101422.81;5020788;28;20033;-84
2023/05/22 09:53:18;;;;;;;57.35;35.60;;;;;;;23.90;60.31;101433.63;5022728;28;20417;-84
2023/05/22 09:55:47;;;;;;;44.37;29.67;;;;;;;23.88;59.89;101424.69;5022826;28;20038;-84
2023/05/22 09:58:20;;;;;;;39.65;27.65;;;;;;;24.12;59.45;101420.25;5018433;28;20120;-85
2023/05/22 10:00:51;;;;;;;40.58;28.95;;;;;;;24.40;58.13;101417.41;5036956;28;20039;-85
2023/05/22 10:03:24;;;;;;;38.00;27.95;;;;;;;24.91;57.32;101419.03;5016126;28;20034;-85
2023/05/22 10:05:57;;;;;;;41.97;26.92;;;;;;;25.20;55.84;101406.22;4999805;28;20029;-85
2023/05/22 10:08:36;;;;;;;39.15;27.20;;;;;;;25.51;55.98;101413.03;5033877;28;20052;-85
2023/05/22 10:11:05;;;;;;;40.95;26.42;;;;;;;26.00;53.83;101406.41;5032899;28;20037;-93
2023/05/22 10:13:52;;;;;;;42.55;28.17;;;;;;;26.48;53.74;101413.28;5032861;28;20087;-92
2023/05/22 10:16:44;;;;;;;46.55;31.33;;;;;;;26.61;52.90;101410.88;5014800;28;20061;-90
2023/05/22 10:19:24;;;;;;;;;;;;;;;;;;;;;
2023/05/22 10:22:29;;;;;;;;;;;;;;;;;;;;;
2023/05/22 10:28:17;;;;;;;51.25;33.45;;;;;;;26.73;50.63;101420.28;5008709;28;20042;-90
2023/05/22 10:31:29;;;;;;;54.20;33.67;;;;;;;26.85;52.16;101414.22;5007857;28;20034;-90
2023/05/22 10:34:15;;;;;;;;;;;;;;;;;;;;;
2023/05/22 10:36:57;;;;;;;;;;;;;;;;;;;;;
2023/05/22 10:40:00;;;;;;;45.30;30.38;;;;;;;26.93;51.61;101403.91;4997873;28;20041;-91
2023/05/22 10:42:31;;;;;;;48.10;30.02;;;;;;;27.11;50.20;101397.63;4995617;28;20029;-89
2023/05/22 10:45:02;;;;;;;46.65;31.08;;;;;;;27.39;49.02;101397.09;4996097;28;20475;-88
2023/05/22 10:47:30;;;;;;;45.55;29.20;;;;;;;27.69;48.11;101401.91;4996572;28;20030;-91
2023/05/22 10:50:14;;;;;;;42.38;28.30;;;;;;;27.81;49.39;101401.31;4996486;28;20213;-91
2023/05/22 10:52:42;;;;;;;40.65;27.83;;;;;;;28.10;46.59;101390.75;4995346;28;20037;-92
2023/05/22 10:55:13;;;;;;;44.25;29.25;;;;;;;28.26;46.87;101393.47;4997196;28;20026;-89
2023/05/22 10:57:39;;;;;;;42.30;26.90;;;;;;;28.64;46.23;101391.41;4996674;28;20030;-90
2023/05/22 11:00:14;;;;;;;38.13;26.75;;;;;;;28.85;46.46;101401.06;4996551;28;20026;-90
2023/05/22 11:02:56;;;;;;;;;;;;;;;;;;;;;
2023/05/22 11:05:24;;;;;;;42.30;27.08;;;;;;;28.82;45.09;101397.63;4996740;28;20045;-90
2023/05/22 11:08:08;;;;;;;38.05;26.75;;;;;;;29.17;45.76;101377.47;4996107;28;20030;-90
2023/05/22 11:11:10;;;;;;;38.38;26.77;;;;;;;29.31;44.42;101384.84;4995331;28;20030;-90
2023/05/22 11:13:40;;;;;;;35.90;24.58;;;;;;;29.36;43.60;101388.16;4995049;28;20117;-90
2023/05/22 11:16:13;;;;;;;39.78;25.55;;;;;;;29.63;43.46;101392.94;4995191;28;20054;-90
2023/05/22 11:18:41;;;;;;;38.72;25.40;;;;;;;29.64;42.54;101381.09;4996520;28;20038;-90
2023/05/22 11:21:10;;;;;;;33.38;24.05;;;;;;;29.40;43.03;101378.84;4996273;28;20035;-90
2023/05/22 11:23:36;;;;;;;41.92;25.70;;;;;;;29.25;43.71;101387.03;4996053;28;20049;-90
2023/05/22 11:26:28;;;;;;;34.30;24.98;;;;;;;29.28;44.84;101367.78;4995518;28;20547;-90
2023/05/22 11:29:00;;;;;;;37.20;24.90;;;;;;;29.42;43.15;101379.63;4994665;28;20034;-91
2023/05/22 11:31:28;;;;;;;35.25;25.45;;;;;;;29.38;43.38;101371.75;4994603;28;20030;-90
2023/05/22 11:33:56;;;;;;;33.40;24.50;;;;;;;29.71;42.68;101378.84;4994792;28;20040;-90